Terminal Aerodrome Forecast
Issued by NWS

Home | Current Version | Previous Version | Graphics & Text | Print | Product List | Glossary On
Versions: 1 2 3 4 5 6 7 8 9 10 11 12 13 14 15
045
FTUS43 KIWX 192339
TAFSBN
TAF
KSBN 192339Z 2000/2024 16005KT P6SM SCT050 BKN150
     FM200800 17008KT P6SM VCSH BKN050
     FM201100 18007KT P6SM -SHRA VCTS OVC035CB
     FM201700 22006KT 3SM SHRA BR VCTS OVC015CB
     FM202000 30008KT 3SM -SHRA BR OVC008=

USA.gov is the U.S. government's official web portal to all federal, state and local government web resources and services.